sensor_id;sensor_type;location;lat;lon;timestamp;temperature;humidity
7476;DHT22;3779;49.216;8.650;2022-10-17T00:00:39;22.80;58.30
7476;DHT22;3779;49.216;8.650;2022-10-17T00:03:25;22.80;58.20
7476;DHT22;3779;49.216;8.650;2022-10-17T00:06:13;22.80;58.30
7476;DHT22;3779;49.216;8.650;2022-10-17T00:08:59;22.80;58.30
7476;DHT22;3779;49.216;8.650;2022-10-17T00:11:45;22.80;58.20
7476;DHT22;3779;49.216;8.650;2022-10-17T00:14:31;22.80;58.10
7476;DHT22;3779;49.216;8.650;2022-10-17T00:17:16;22.80;58.20
7476;DHT22;3779;49.216;8.650;2022-10-17T00:20:02;22.80;58.10
7476;DHT22;3779;49.216;8.650;2022-10-17T00:22:48;22.80;58.00
7476;DHT22;3779;49.216;8.650;2022-10-17T00:25:34;22.80;58.00
7476;DHT22;3779;49.216;8.650;2022-10-17T00:28:21;22.80;58.40
7476;DHT22;3779;49.216;8.650;2022-10-17T00:31:07;22.80;57.80
7476;DHT22;3779;49.216;8.650;2022-10-17T00:33:53;22.70;57.50
7476;DHT22;3779;49.216;8.650;2022-10-17T00:36:39;22.80;58.00
7476;DHT22;3779;49.216;8.650;2022-10-17T00:39:25;22.70;57.80
7476;DHT22;3779;49.216;8.650;2022-10-17T00:42:14;22.70;57.60
7476;DHT22;3779;49.216;8.650;2022-10-17T00:48:04;22.70;57.80
7476;DHT22;3779;49.216;8.650;2022-10-17T00:50:51;22.80;57.80
7476;DHT22;3779;49.216;8.650;2022-10-17T00:53:38;22.80;57.40
7476;DHT22;3779;49.216;8.650;2022-10-17T00:56:24;22.70;57.40
7476;DHT22;3779;49.216;8.650;2022-10-17T00:59:12;22.70;57.50
7476;DHT22;3779;49.216;8.650;2022-10-17T01:02:06;22.70;57.50
7476;DHT22;3779;49.216;8.650;2022-10-17T01:04:52;22.80;57.60
7476;DHT22;3779;49.216;8.650;2022-10-17T01:07:41;22.70;56.80
7476;DHT22;3779;49.216;8.650;2022-10-17T01:10:36;22.70;56.60
7476;DHT22;3779;49.216;8.650;2022-10-17T01:13:33;22.70;57.00
7476;DHT22;3779;49.216;8.650;2022-10-17T01:19:41;22.70;56.60
7476;DHT22;3779;49.216;8.650;2022-10-17T01:22:49;22.70;56.80
7476;DHT22;3779;49.216;8.650;2022-10-17T01:25:53;22.60;57.30
7476;DHT22;3779;49.216;8.650;2022-10-17T01:31:46;22.60;56.60
7476;DHT22;3779;49.216;8.650;2022-10-17T01:40:21;22.60;56.40
7476;DHT22;3779;49.216;8.650;2022-10-17T01:43:14;22.60;56.90
7476;DHT22;3779;49.216;8.650;2022-10-17T01:46:17;22.60;57.00
7476;DHT22;3779;49.216;8.650;2022-10-17T01:49:09;22.60;56.90
7476;DHT22;3779;49.216;8.650;2022-10-17T01:52:12;22.70;56.80
7476;DHT22;3779;49.216;8.650;2022-10-17T01:55:09;22.60;56.70
7476;DHT22;3779;49.216;8.650;2022-10-17T01:58:08;22.60;56.90
7476;DHT22;3779;49.216;8.650;2022-10-17T02:00:57;22.60;56.60
7476;DHT22;3779;49.216;8.650;2022-10-17T02:03:45;22.60;56.60
7476;DHT22;3779;49.216;8.650;2022-10-17T02:06:34;22.60;56.30
7476;DHT22;3779;49.216;8.650;2022-10-17T02:09:25;22.60;56.20
7476;DHT22;3779;49.216;8.650;2022-10-17T02:12:31;22.60;56.00
7476;DHT22;3779;49.216;8.650;2022-10-17T02:30:43;22.60;56.90
7476;DHT22;3779;49.216;8.650;2022-10-17T02:33:36;22.60;56.40
7476;DHT22;3779;49.216;8.650;2022-10-17T02:36:31;22.60;56.30
7476;DHT22;3779;49.216;8.650;2022-10-17T02:39:21;22.60;56.40
7476;DHT22;3779;49.216;8.650;2022-10-17T02:42:09;22.70;57.00
7476;DHT22;3779;49.216;8.650;2022-10-17T02:44:58;22.70;56.80
7476;DHT22;3779;49.216;8.650;2022-10-17T02:54:08;22.70;56.60
7476;DHT22;3779;49.216;8.650;2022-10-17T02:57:05;22.70;56.90
7476;DHT22;3779;49.216;8.650;2022-10-17T02:59:52;22.70;56.50
7476;DHT22;3779;49.216;8.650;2022-10-17T03:02:40;22.70;56.40
7476;DHT22;3779;49.216;8.650;2022-10-17T03:05:28;22.70;56.00
7476;DHT22;3779;49.216;8.650;2022-10-17T03:08:14;22.70;56.10
7476;DHT22;3779;49.216;8.650;2022-10-17T03:11:01;22.70;56.40
7476;DHT22;3779;49.216;8.650;2022-10-17T03:13:48;22.80;57.00
7476;DHT22;3779;49.216;8.650;2022-10-17T03:16:35;22.80;56.90
7476;DHT22;3779;49.216;8.650;2022-10-17T03:19:22;22.80;57.10
7476;DHT22;3779;49.216;8.650;2022-10-17T03:22:10;22.70;56.80
7476;DHT22;3779;49.216;8.650;2022-10-17T03:24:58;22.80;57.10
7476;DHT22;3779;49.216;8.650;2022-10-17T03:27:44;22.70;57.30
7476;DHT22;3779;49.216;8.650;2022-10-17T03:30:31;22.80;57.30
7476;DHT22;3779;49.216;8.650;2022-10-17T03:33:17;22.80;57.10
7476;DHT22;3779;49.216;8.650;2022-10-17T03:36:13;22.80;57.10
7476;DHT22;3779;49.216;8.650;2022-10-17T03:38:59;22.80;57.40
7476;DHT22;3779;49.216;8.650;2022-10-17T03:41:46;22.70;56.70
7476;DHT22;3779;49.216;8.650;2022-10-17T03:44:33;22.80;56.70
7476;DHT22;3779;49.216;8.650;2022-10-17T03:47:20;22.80;56.90
7476;DHT22;3779;49.216;8.650;2022-10-17T03:50:06;22.80;56.80
7476;DHT22;3779;49.216;8.650;2022-10-17T03:52:55;22.80;56.70
7476;DHT22;3779;49.216;8.650;2022-10-17T03:55:41;22.70;57.00
7476;DHT22;3779;49.216;8.650;2022-10-17T03:58:27;22.70;57.40
7476;DHT22;3779;49.216;8.650;2022-10-17T04:01:16;22.80;57.20
7476;DHT22;3779;49.216;8.650;2022-10-17T04:04:02;22.80;57.50
7476;DHT22;3779;49.216;8.650;2022-10-17T04:06:51;22.80;57.50
7476;DHT22;3779;49.216;8.650;2022-10-17T04:09:37;22.70;57.60
7476;DHT22;3779;49.216;8.650;2022-10-17T04:12:27;22.80;57.90
7476;DHT22;3779;49.216;8.650;2022-10-17T04:15:13;22.80;57.80
7476;DHT22;3779;49.216;8.650;2022-10-17T04:18:00;22.80;57.50
7476;DHT22;3779;49.216;8.650;2022-10-17T04:20:45;22.80;57.00
7476;DHT22;3779;49.216;8.650;2022-10-17T04:23:32;22.70;56.90
7476;DHT22;3779;49.216;8.650;2022-10-17T04:26:24;22.70;56.60
7476;DHT22;3779;49.216;8.650;2022-10-17T04:29:10;22.70;56.70
7476;DHT22;3779;49.216;8.650;2022-10-17T04:31:57;22.70;56.40
7476;DHT22;3779;49.216;8.650;2022-10-17T04:34:51;22.70;56.10
7476;DHT22;3779;49.216;8.650;2022-10-17T04:37:38;22.70;55.90
7476;DHT22;3779;49.216;8.650;2022-10-17T04:40:31;22.70;55.90
7476;DHT22;3779;49.216;8.650;2022-10-17T04:43:18;22.70;55.60
7476;DHT22;3779;49.216;8.650;2022-10-17T04:46:07;22.70;55.60
7476;DHT22;3779;49.216;8.650;2022-10-17T04:48:54;22.70;55.80
7476;DHT22;3779;49.216;8.650;2022-10-17T04:51:41;22.70;56.10
7476;DHT22;3779;49.216;8.650;2022-10-17T04:54:39;22.70;55.90
7476;DHT22;3779;49.216;8.650;2022-10-17T04:57:28;22.70;55.30
7476;DHT22;3779;49.216;8.650;2022-10-17T05:00:21;22.70;55.30
7476;DHT22;3779;49.216;8.650;2022-10-17T05:03:16;22.70;55.10
7476;DHT22;3779;49.216;8.650;2022-10-17T05:06:07;22.70;55.40
7476;DHT22;3779;49.216;8.650;2022-10-17T05:08:54;22.70;55.40
7476;DHT22;3779;49.216;8.650;2022-10-17T05:11:41;22.60;55.00
7476;DHT22;3779;49.216;8.650;2022-10-17T05:14:27;22.60;55.10
7476;DHT22;3779;49.216;8.650;2022-10-17T05:17:13;22.60;54.80
7476;DHT22;3779;49.216;8.650;2022-10-17T05:19:59;22.60;54.60
7476;DHT22;3779;49.216;8.650;2022-10-17T05:22:45;22.60;54.70
7476;DHT22;3779;49.216;8.650;2022-10-17T05:25:31;22.60;54.80
7476;DHT22;3779;49.216;8.650;2022-10-17T05:28:17;22.60;54.60
7476;DHT22;3779;49.216;8.650;2022-10-17T05:31:06;22.60;54.80
7476;DHT22;3779;49.216;8.650;2022-10-17T05:33:52;22.60;54.70
7476;DHT22;3779;49.216;8.650;2022-10-17T05:36:38;22.60;54.90
7476;DHT22;3779;49.216;8.650;2022-10-17T05:39:26;22.60;54.70
7476;DHT22;3779;49.216;8.650;2022-10-17T05:42:12;22.60;54.90
7476;DHT22;3779;49.216;8.650;2022-10-17T05:44:58;22.60;55.30
7476;DHT22;3779;49.216;8.650;2022-10-17T05:47:45;22.60;55.60
7476;DHT22;3779;49.216;8.650;2022-10-17T05:50:31;22.60;55.90
7476;DHT22;3779;49.216;8.650;2022-10-17T05:53:29;22.60;56.20
7476;DHT22;3779;49.216;8.650;2022-10-17T05:56:16;22.60;56.50
7476;DHT22;3779;49.216;8.650;2022-10-17T05:59:06;22.60;56.50
7476;DHT22;3779;49.216;8.650;2022-10-17T06:02:10;22.60;56.70
7476;DHT22;3779;49.216;8.650;2022-10-17T06:04:57;22.60;56.90
7476;DHT22;3779;49.216;8.650;2022-10-17T06:07:43;22.60;56.80
7476;DHT22;3779;49.216;8.650;2022-10-17T06:10:30;22.60;57.30
7476;DHT22;3779;49.216;8.650;2022-10-17T06:13:17;22.70;57.40
7476;DHT22;3779;49.216;8.650;2022-10-17T06:16:06;22.70;57.20
7476;DHT22;3779;49.216;8.650;2022-10-17T06:18:52;22.70;57.20
7476;DHT22;3779;49.216;8.650;2022-10-17T06:21:38;22.70;57.10
7476;DHT22;3779;49.216;8.650;2022-10-17T06:24:31;22.70;57.20
7476;DHT22;3779;49.216;8.650;2022-10-17T06:27:21;22.70;57.30
7476;DHT22;3779;49.216;8.650;2022-10-17T06:30:07;22.70;57.30
7476;DHT22;3779;49.216;8.650;2022-10-17T06:32:54;22.70;57.40
7476;DHT22;3779;49.216;8.650;2022-10-17T06:35:40;22.70;57.30
7476;DHT22;3779;49.216;8.650;2022-10-17T06:38:26;22.70;57.10
7476;DHT22;3779;49.216;8.650;2022-10-17T06:41:15;22.70;57.10
7476;DHT22;3779;49.216;8.650;2022-10-17T06:44:03;22.70;57.30
7476;DHT22;3779;49.216;8.650;2022-10-17T06:47:29;22.70;57.10
7476;DHT22;3779;49.216;8.650;2022-10-17T06:50:18;22.70;57.30
7476;DHT22;3779;49.216;8.650;2022-10-17T06:53:17;22.70;57.30
7476;DHT22;3779;49.216;8.650;2022-10-17T06:56:22;22.70;57.10
7476;DHT22;3779;49.216;8.650;2022-10-17T06:59:26;22.70;57.00
7476;DHT22;3779;49.216;8.650;2022-10-17T07:02:19;22.70;57.10
7476;DHT22;3779;49.216;8.650;2022-10-17T07:05:06;22.70;57.40
7476;DHT22;3779;49.216;8.650;2022-10-17T07:07:53;22.70;57.20
7476;DHT22;3779;49.216;8.650;2022-10-17T07:10:39;22.70;57.30
7476;DHT22;3779;49.216;8.650;2022-10-17T07:13:26;22.70;57.40
7476;DHT22;3779;49.216;8.650;2022-10-17T07:16:13;22.70;58.20
7476;DHT22;3779;49.216;8.650;2022-10-17T07:19:00;22.70;58.10
7476;DHT22;3779;49.216;8.650;2022-10-17T07:21:53;22.70;58.70
7476;DHT22;3779;49.216;8.650;2022-10-17T07:24:39;22.70;58.30
7476;DHT22;3779;49.216;8.650;2022-10-17T07:27:33;22.70;58.40
7476;DHT22;3779;49.216;8.650;2022-10-17T07:30:20;22.70;58.50
7476;DHT22;3779;49.216;8.650;2022-10-17T07:33:23;22.70;58.90
7476;DHT22;3779;49.216;8.650;2022-10-17T07:36:09;22.70;59.20
7476;DHT22;3779;49.216;8.650;2022-10-17T07:38:55;22.80;60.40
7476;DHT22;3779;49.216;8.650;2022-10-17T07:41:43;22.80;59.70
7476;DHT22;3779;49.216;8.650;2022-10-17T07:44:29;22.80;59.70
7476;DHT22;3779;49.216;8.650;2022-10-17T07:47:16;22.90;60.30
7476;DHT22;3779;49.216;8.650;2022-10-17T07:50:04;22.90;59.70
7476;DHT22;3779;49.216;8.650;2022-10-17T07:52:50;22.90;60.00
7476;DHT22;3779;49.216;8.650;2022-10-17T07:55:37;22.90;60.20
7476;DHT22;3779;49.216;8.650;2022-10-17T07:58:23;22.90;60.40
7476;DHT22;3779;49.216;8.650;2022-10-17T08:01:10;22.90;60.60
7476;DHT22;3779;49.216;8.650;2022-10-17T08:03:59;22.90;60.60
7476;DHT22;3779;49.216;8.650;2022-10-17T08:06:44;22.90;60.60
7476;DHT22;3779;49.216;8.650;2022-10-17T08:09:30;23.00;60.70
7476;DHT22;3779;49.216;8.650;2022-10-17T08:12:16;23.00;60.60
7476;DHT22;3779;49.216;8.650;2022-10-17T08:15:03;23.00;60.70
7476;DHT22;3779;49.216;8.650;2022-10-17T08:17:50;23.10;60.90
7476;DHT22;3779;49.216;8.650;2022-10-17T08:20:36;23.10;60.90
7476;DHT22;3779;49.216;8.650;2022-10-17T08:23:22;23.10;61.00
7476;DHT22;3779;49.216;8.650;2022-10-17T08:26:09;23.10;60.90
7476;DHT22;3779;49.216;8.650;2022-10-17T08:28:57;23.10;60.90
7476;DHT22;3779;49.216;8.650;2022-10-17T08:31:43;23.10;61.00
7476;DHT22;3779;49.216;8.650;2022-10-17T08:34:29;23.10;61.20
7476;DHT22;3779;49.216;8.650;2022-10-17T08:37:15;23.10;61.20
7476;DHT22;3779;49.216;8.650;2022-10-17T08:40:02;23.20;61.20
7476;DHT22;3779;49.216;8.650;2022-10-17T08:46:04;23.20;61.30
7476;DHT22;3779;49.216;8.650;2022-10-17T08:48:51;23.20;61.20
7476;DHT22;3779;49.216;8.650;2022-10-17T08:51:46;23.20;61.10
7476;DHT22;3779;49.216;8.650;2022-10-17T08:54:41;23.20;61.20
7476;DHT22;3779;49.216;8.650;2022-10-17T08:57:27;23.10;61.20
7476;DHT22;3779;49.216;8.650;2022-10-17T09:00:19;23.10;61.20
7476;DHT22;3779;49.216;8.650;2022-10-17T09:03:19;23.10;61.30
7476;DHT22;3779;49.216;8.650;2022-10-17T09:06:13;23.10;61.20
7476;DHT22;3779;49.216;8.650;2022-10-17T09:09:33;23.20;61.20
7476;DHT22;3779;49.216;8.650;2022-10-17T09:18:50;23.10;61.40
7476;DHT22;3779;49.216;8.650;2022-10-17T09:21:52;23.10;61.40
7476;DHT22;3779;49.216;8.650;2022-10-17T09:24:52;23.10;61.70
7476;DHT22;3779;49.216;8.650;2022-10-17T09:27:43;23.10;61.50
7476;DHT22;3779;49.216;8.650;2022-10-17T09:30:35;23.10;62.30
7476;DHT22;3779;49.216;8.650;2022-10-17T09:33:27;23.10;61.50
7476;DHT22;3779;49.216;8.650;2022-10-17T09:36:35;23.20;61.50
7476;DHT22;3779;49.216;8.650;2022-10-17T09:39:23;23.10;61.40
7476;DHT22;3779;49.216;8.650;2022-10-17T09:42:16;23.20;61.50
7476;DHT22;3779;49.216;8.650;2022-10-17T09:45:17;23.20;61.40
7476;DHT22;3779;49.216;8.650;2022-10-17T09:51:08;23.20;61.50
7476;DHT22;3779;49.216;8.650;2022-10-17T09:53:58;23.10;61.50
7476;DHT22;3779;49.216;8.650;2022-10-17T10:00:05;23.10;61.70
7476;DHT22;3779;49.216;8.650;2022-10-17T10:03:18;23.10;61.80
7476;DHT22;3779;49.216;8.650;2022-10-17T10:08:56;23.20;61.80
7476;DHT22;3779;49.216;8.650;2022-10-17T10:11:55;23.20;61.90
7476;DHT22;3779;49.216;8.650;2022-10-17T10:14:41;23.10;61.90
7476;DHT22;3779;49.216;8.650;2022-10-17T10:17:38;23.10;62.00
7476;DHT22;3779;49.216;8.650;2022-10-17T10:20:35;23.10;61.90
7476;DHT22;3779;49.216;8.650;2022-10-17T10:23:22;23.20;61.90
7476;DHT22;3779;49.216;8.650;2022-10-17T10:26:39;23.10;62.10
7476;DHT22;3779;49.216;8.650;2022-10-17T10:29:29;23.10;62.20
7476;DHT22;3779;49.216;8.650;2022-10-17T10:32:27;23.10;62.00
7476;DHT22;3779;49.216;8.650;2022-10-17T10:38:14;23.20;62.10
7476;DHT22;3779;49.216;8.650;2022-10-17T10:41:05;23.30;61.80
7476;DHT22;3779;49.216;8.650;2022-10-17T10:43:53;23.20;61.90
7476;DHT22;3779;49.216;8.650;2022-10-17T10:46:40;23.10;62.20
7476;DHT22;3779;49.216;8.650;2022-10-17T10:49:31;23.10;61.90
7476;DHT22;3779;49.216;8.650;2022-10-17T10:52:30;23.10;62.30
7476;DHT22;3779;49.216;8.650;2022-10-17T10:55:29;23.10;62.20
7476;DHT22;3779;49.216;8.650;2022-10-17T11:01:38;23.30;62.10
7476;DHT22;3779;49.216;8.650;2022-10-17T11:07:38;23.40;61.60
7476;DHT22;3779;49.216;8.650;2022-10-17T11:10:38;23.30;61.60
7476;DHT22;3779;49.216;8.650;2022-10-17T11:14:10;23.40;61.50
7476;DHT22;3779;49.216;8.650;2022-10-17T11:17:11;23.30;61.70
7476;DHT22;3779;49.216;8.650;2022-10-17T11:26:04;23.40;61.80
7476;DHT22;3779;49.216;8.650;2022-10-17T11:28:51;23.40;62.00
7476;DHT22;3779;49.216;8.650;2022-10-17T11:31:42;23.40;62.40
7476;DHT22;3779;49.216;8.650;2022-10-17T11:34:34;23.40;62.30
7476;DHT22;3779;49.216;8.650;2022-10-17T11:37:25;23.40;61.90
7476;DHT22;3779;49.216;8.650;2022-10-17T11:40:20;23.40;62.20
7476;DHT22;3779;49.216;8.650;2022-10-17T11:43:39;23.30;62.20
7476;DHT22;3779;49.216;8.650;2022-10-17T11:46:27;23.40;62.60
7476;DHT22;3779;49.216;8.650;2022-10-17T11:49:23;23.40;62.50
7476;DHT22;3779;49.216;8.650;2022-10-17T11:55:22;23.40;63.00
7476;DHT22;3779;49.216;8.650;2022-10-17T12:04:11;23.50;63.50
7476;DHT22;3779;49.216;8.650;2022-10-17T12:24:59;23.30;63.00
7476;DHT22;3779;49.216;8.650;2022-10-17T12:27:47;23.40;62.80
7476;DHT22;3779;49.216;8.650;2022-10-17T12:30:34;23.20;63.10
7476;DHT22;3779;49.216;8.650;2022-10-17T12:44:35;23.50;62.30
7476;DHT22;3779;49.216;8.650;2022-10-17T12:47:38;23.50;62.50
7476;DHT22;3779;49.216;8.650;2022-10-17T12:53:56;23.60;62.10
7476;DHT22;3779;49.216;8.650;2022-10-17T12:56:48;23.50;62.10
7476;DHT22;3779;49.216;8.650;2022-10-17T12:59:34;23.50;62.00
7476;DHT22;3779;49.216;8.650;2022-10-17T13:02:23;23.60;62.00
7476;DHT22;3779;49.216;8.650;2022-10-17T13:05:36;23.60;62.30
7476;DHT22;3779;49.216;8.650;2022-10-17T13:08:38;23.60;62.90
7476;DHT22;3779;49.216;8.650;2022-10-17T13:11:27;23.50;62.40
7476;DHT22;3779;49.216;8.650;2022-10-17T13:14:15;23.60;62.40
7476;DHT22;3779;49.216;8.650;2022-10-17T13:17:04;23.60;62.70
7476;DHT22;3779;49.216;8.650;2022-10-17T13:19:51;23.60;62.40
7476;DHT22;3779;49.216;8.650;2022-10-17T13:22:43;23.50;62.50
7476;DHT22;3779;49.216;8.650;2022-10-17T13:25:30;23.50;62.20
7476;DHT22;3779;49.216;8.650;2022-10-17T13:28:15;23.50;62.30
7476;DHT22;3779;49.216;8.650;2022-10-17T13:31:02;23.60;62.30
7476;DHT22;3779;49.216;8.650;2022-10-17T13:33:47;23.60;62.90
7476;DHT22;3779;49.216;8.650;2022-10-17T13:36:41;23.60;63.40
7476;DHT22;3779;49.216;8.650;2022-10-17T13:39:33;23.60;63.20
7476;DHT22;3779;49.216;8.650;2022-10-17T13:42:22;23.60;63.20
7476;DHT22;3779;49.216;8.650;2022-10-17T13:45:30;23.60;62.90
7476;DHT22;3779;49.216;8.650;2022-10-17T13:48:25;23.60;63.20
7476;DHT22;3779;49.216;8.650;2022-10-17T13:51:12;23.60;63.20
7476;DHT22;3779;49.216;8.650;2022-10-17T13:53:58;23.50;63.00
7476;DHT22;3779;49.216;8.650;2022-10-17T13:56:44;23.60;63.20
7476;DHT22;3779;49.216;8.650;2022-10-17T13:59:37;23.60;63.90
7476;DHT22;3779;49.216;8.650;2022-10-17T14:02:26;23.60;63.20
7476;DHT22;3779;49.216;8.650;2022-10-17T14:05:16;23.60;63.40
7476;DHT22;3779;49.216;8.650;2022-10-17T14:08:03;23.60;63.40
7476;DHT22;3779;49.216;8.650;2022-10-17T14:10:50;23.60;63.40
7476;DHT22;3779;49.216;8.650;2022-10-17T14:13:35;23.60;63.30
7476;DHT22;3779;49.216;8.650;2022-10-17T14:16:23;23.60;63.20
7476;DHT22;3779;49.216;8.650;2022-10-17T14:19:30;23.60;63.40
7476;DHT22;3779;49.216;8.650;2022-10-17T14:22:25;23.60;63.50
7476;DHT22;3779;49.216;8.650;2022-10-17T14:28:16;23.60;63.30
7476;DHT22;3779;49.216;8.650;2022-10-17T14:31:20;23.60;63.20
7476;DHT22;3779;49.216;8.650;2022-10-17T14:34:19;23.60;63.70
7476;DHT22;3779;49.216;8.650;2022-10-17T14:37:12;23.60;63.60
7476;DHT22;3779;49.216;8.650;2022-10-17T14:40:04;23.60;63.50
7476;DHT22;3779;49.216;8.650;2022-10-17T14:42:55;23.60;63.70
7476;DHT22;3779;49.216;8.650;2022-10-17T14:45:44;23.60;63.90
7476;DHT22;3779;49.216;8.650;2022-10-17T14:48:31;23.60;63.40
7476;DHT22;3779;49.216;8.650;2022-10-17T14:51:17;23.60;63.40
7476;DHT22;3779;49.216;8.650;2022-10-17T14:54:18;23.60;63.20
7476;DHT22;3779;49.216;8.650;2022-10-17T15:00:19;23.60;63.70
7476;DHT22;3779;49.216;8.650;2022-10-17T15:03:05;23.60;63.60
7476;DHT22;3779;49.216;8.650;2022-10-17T15:05:52;23.60;63.70
7476;DHT22;3779;49.216;8.650;2022-10-17T15:08:39;23.60;64.30
7476;DHT22;3779;49.216;8.650;2022-10-17T15:11:25;23.60;64.30
7476;DHT22;3779;49.216;8.650;2022-10-17T15:14:11;23.50;63.80
7476;DHT22;3779;49.216;8.650;2022-10-17T15:16:56;23.30;63.80
7476;DHT22;3779;49.216;8.650;2022-10-17T15:19:42;23.30;64.10
7476;DHT22;3779;49.216;8.650;2022-10-17T15:22:28;23.20;64.20
7476;DHT22;3779;49.216;8.650;2022-10-17T15:25:15;23.30;65.10
7476;DHT22;3779;49.216;8.650;2022-10-17T15:28:01;23.30;64.30
7476;DHT22;3779;49.216;8.650;2022-10-17T15:30:47;23.30;64.20
7476;DHT22;3779;49.216;8.650;2022-10-17T15:33:33;23.30;64.10
7476;DHT22;3779;49.216;8.650;2022-10-17T15:39:09;23.30;64.20
7476;DHT22;3779;49.216;8.650;2022-10-17T15:41:55;23.30;64.10
7476;DHT22;3779;49.216;8.650;2022-10-17T15:44:41;23.30;64.30
7476;DHT22;3779;49.216;8.650;2022-10-17T15:47:32;23.30;64.30
7476;DHT22;3779;49.216;8.650;2022-10-17T15:50:18;23.30;64.30
7476;DHT22;3779;49.216;8.650;2022-10-17T15:53:10;23.30;64.10
7476;DHT22;3779;49.216;8.650;2022-10-17T15:55:57;23.30;64.10
7476;DHT22;3779;49.216;8.650;2022-10-17T15:58:43;23.30;64.10
7476;DHT22;3779;49.216;8.650;2022-10-17T16:01:30;23.40;64.20
7476;DHT22;3779;49.216;8.650;2022-10-17T16:04:17;23.30;64.10
7476;DHT22;3779;49.216;8.650;2022-10-17T16:07:03;23.40;64.10
7476;DHT22;3779;49.216;8.650;2022-10-17T16:09:49;23.40;63.80
7476;DHT22;3779;49.216;8.650;2022-10-17T16:12:35;23.40;63.80
7476;DHT22;3779;49.216;8.650;2022-10-17T16:15:26;23.50;63.70
7476;DHT22;3779;49.216;8.650;2022-10-17T16:18:12;23.50;63.80
7476;DHT22;3779;49.216;8.650;2022-10-17T16:20:58;23.50;63.70
7476;DHT22;3779;49.216;8.650;2022-10-17T16:23:44;23.50;63.60
7476;DHT22;3779;49.216;8.650;2022-10-17T16:26:31;23.50;63.40
7476;DHT22;3779;49.216;8.650;2022-10-17T16:29:17;23.50;63.60
7476;DHT22;3779;49.216;8.650;2022-10-17T16:32:02;23.50;63.50
7476;DHT22;3779;49.216;8.650;2022-10-17T16:34:48;23.50;63.50
7476;DHT22;3779;49.216;8.650;2022-10-17T16:37:34;23.50;63.60
7476;DHT22;3779;49.216;8.650;2022-10-17T16:40:20;23.60;63.70
7476;DHT22;3779;49.216;8.650;2022-10-17T16:43:09;23.60;63.90
7476;DHT22;3779;49.216;8.650;2022-10-17T16:45:55;23.60;63.70
7476;DHT22;3779;49.216;8.650;2022-10-17T16:48:42;23.60;63.70
7476;DHT22;3779;49.216;8.650;2022-10-17T16:51:28;23.60;63.90
7476;DHT22;3779;49.216;8.650;2022-10-17T16:54:14;23.60;63.80
7476;DHT22;3779;49.216;8.650;2022-10-17T16:57:01;23.60;63.70
7476;DHT22;3779;49.216;8.650;2022-10-17T16:59:47;23.60;63.90
7476;DHT22;3779;49.216;8.650;2022-10-17T17:02:32;23.60;63.80
7476;DHT22;3779;49.216;8.650;2022-10-17T17:05:18;23.60;64.00
7476;DHT22;3779;49.216;8.650;2022-10-17T17:08:04;23.60;64.10
7476;DHT22;3779;49.216;8.650;2022-10-17T17:10:50;23.60;64.20
7476;DHT22;3779;49.216;8.650;2022-10-17T17:13:40;23.60;64.20
7476;DHT22;3779;49.216;8.650;2022-10-17T17:16:27;23.60;64.40
7476;DHT22;3779;49.216;8.650;2022-10-17T17:19:14;23.60;64.40
7476;DHT22;3779;49.216;8.650;2022-10-17T17:22:01;23.60;64.30
7476;DHT22;3779;49.216;8.650;2022-10-17T17:24:47;23.50;64.20
7476;DHT22;3779;49.216;8.650;2022-10-17T17:27:33;23.60;64.20
7476;DHT22;3779;49.216;8.650;2022-10-17T17:30:19;23.60;64.30
7476;DHT22;3779;49.216;8.650;2022-10-17T17:33:05;23.50;64.10
7476;DHT22;3779;49.216;8.650;2022-10-17T17:35:56;23.60;64.30
7476;DHT22;3779;49.216;8.650;2022-10-17T17:38:43;23.60;64.60
7476;DHT22;3779;49.216;8.650;2022-10-17T17:41:29;23.60;64.50
7476;DHT22;3779;49.216;8.650;2022-10-17T17:44:15;23.60;64.50
7476;DHT22;3779;49.216;8.650;2022-10-17T17:47:01;23.60;64.60
7476;DHT22;3779;49.216;8.650;2022-10-17T17:49:47;23.60;64.50
7476;DHT22;3779;49.216;8.650;2022-10-17T17:52:33;23.50;64.50
7476;DHT22;3779;49.216;8.650;2022-10-17T17:55:19;23.60;64.60
7476;DHT22;3779;49.216;8.650;2022-10-17T17:58:05;23.50;64.40
7476;DHT22;3779;49.216;8.650;2022-10-17T18:00:52;23.50;64.50
7476;DHT22;3779;49.216;8.650;2022-10-17T18:03:39;23.50;64.50
7476;DHT22;3779;49.216;8.650;2022-10-17T18:06:26;23.50;64.60
7476;DHT22;3779;49.216;8.650;2022-10-17T18:09:15;23.50;64.70
7476;DHT22;3779;49.216;8.650;2022-10-17T18:12:01;23.50;64.60
7476;DHT22;3779;49.216;8.650;2022-10-17T18:14:47;23.50;64.50
7476;DHT22;3779;49.216;8.650;2022-10-17T18:17:33;23.50;64.40
7476;DHT22;3779;49.216;8.650;2022-10-17T18:20:19;23.50;64.50
7476;DHT22;3779;49.216;8.650;2022-10-17T18:23:05;23.50;64.40
7476;DHT22;3779;49.216;8.650;2022-10-17T18:25:55;23.50;64.40
7476;DHT22;3779;49.216;8.650;2022-10-17T18:28:42;23.50;64.50
7476;DHT22;3779;49.216;8.650;2022-10-17T18:31:28;23.40;64.40
7476;DHT22;3779;49.216;8.650;2022-10-17T18:34:19;23.40;64.50
7476;DHT22;3779;49.216;8.650;2022-10-17T18:37:05;23.40;64.30
7476;DHT22;3779;49.216;8.650;2022-10-17T18:39:51;23.40;64.30
7476;DHT22;3779;49.216;8.650;2022-10-17T18:42:41;23.40;64.50
7476;DHT22;3779;49.216;8.650;2022-10-17T18:45:27;23.50;64.60
7476;DHT22;3779;49.216;8.650;2022-10-17T18:48:13;23.40;64.50
7476;DHT22;3779;49.216;8.650;2022-10-17T18:51:00;23.50;64.50
7476;DHT22;3779;49.216;8.650;2022-10-17T18:53:49;23.40;64.60
7476;DHT22;3779;49.216;8.650;2022-10-17T18:56:35;23.10;64.40
7476;DHT22;3779;49.216;8.650;2022-10-17T18:59:21;23.40;64.60
7476;DHT22;3779;49.216;8.650;2022-10-17T19:02:09;23.40;64.60
7476;DHT22;3779;49.216;8.650;2022-10-17T19:04:57;23.40;64.70
7476;DHT22;3779;49.216;8.650;2022-10-17T19:07:43;23.40;64.50
7476;DHT22;3779;49.216;8.650;2022-10-17T19:10:31;23.40;64.50
7476;DHT22;3779;49.216;8.650;2022-10-17T19:13:17;23.40;64.70
7476;DHT22;3779;49.216;8.650;2022-10-17T19:16:07;23.40;64.60
7476;DHT22;3779;49.216;8.650;2022-10-17T19:18:58;23.40;64.80
7476;DHT22;3779;49.216;8.650;2022-10-17T19:21:45;23.40;64.70
7476;DHT22;3779;49.216;8.650;2022-10-17T19:24:31;23.40;64.70
7476;DHT22;3779;49.216;8.650;2022-10-17T19:27:17;23.40;64.40
7476;DHT22;3779;49.216;8.650;2022-10-17T19:30:05;23.40;64.50
7476;DHT22;3779;49.216;8.650;2022-10-17T19:32:51;23.40;64.50
7476;DHT22;3779;49.216;8.650;2022-10-17T19:35:37;23.40;64.40
7476;DHT22;3779;49.216;8.650;2022-10-17T19:38:24;23.40;64.50
7476;DHT22;3779;49.216;8.650;2022-10-17T19:41:12;23.40;64.40
7476;DHT22;3779;49.216;8.650;2022-10-17T19:43:59;23.40;64.50
7476;DHT22;3779;49.216;8.650;2022-10-17T19:46:45;23.30;64.30
7476;DHT22;3779;49.216;8.650;2022-10-17T19:49:32;23.40;64.50
7476;DHT22;3779;49.216;8.650;2022-10-17T19:52:18;23.40;64.40
7476;DHT22;3779;49.216;8.650;2022-10-17T19:55:04;23.40;64.10
7476;DHT22;3779;49.216;8.650;2022-10-17T19:57:50;23.40;64.20
7476;DHT22;3779;49.216;8.650;2022-10-17T20:00:36;23.30;64.10
7476;DHT22;3779;49.216;8.650;2022-10-17T20:03:23;23.40;64.20
7476;DHT22;3779;49.216;8.650;2022-10-17T20:06:10;23.40;64.20
7476;DHT22;3779;49.216;8.650;2022-10-17T20:08:56;23.40;63.80
7476;DHT22;3779;49.216;8.650;2022-10-17T20:11:41;23.30;63.60
7476;DHT22;3779;49.216;8.650;2022-10-17T20:14:27;23.40;63.70
7476;DHT22;3779;49.216;8.650;2022-10-17T20:17:13;23.30;63.50
7476;DHT22;3779;49.216;8.650;2022-10-17T20:19:59;23.40;63.60
7476;DHT22;3779;49.216;8.650;2022-10-17T20:22:45;23.30;63.50
7476;DHT22;3779;49.216;8.650;2022-10-17T20:25:31;23.30;63.60
7476;DHT22;3779;49.216;8.650;2022-10-17T20:28:19;23.30;63.60